sensor_id;sensor_type;location;lat;lon;timestamp;P1;durP1;ratioP1;P2;durP2;ratioP2
45650;SDS011;31365;48.858;8.530;2023-02-11T00:01:28;7.70;;;6.90;;
45650;SDS011;31365;48.858;8.530;2023-02-11T00:03:59;8.32;;;7.43;;
45650;SDS011;31365;48.858;8.530;2023-02-11T00:06:29;6.88;;;6.28;;
45650;SDS011;31365;48.858;8.530;2023-02-11T00:08:59;7.03;;;6.32;;
45650;SDS011;31365;48.858;8.530;2023-02-11T00:11:28;7.90;;;7.10;;
45650;SDS011;31365;48.858;8.530;2023-02-11T00:13:57;6.95;;;6.25;;
45650;SDS011;31365;48.858;8.530;2023-02-11T00:16:29;6.63;;;5.93;;
45650;SDS011;31365;48.858;8.530;2023-02-11T00:18:58;6.20;;;5.60;;
45650;SDS011;31365;48.858;8.530;2023-02-11T00:21:28;6.35;;;5.75;;
45650;SDS011;31365;48.858;8.530;2023-02-11T00:23:56;5.47;;;4.97;;
45650;SDS011;31365;48.858;8.530;2023-02-11T00:26:28;6.65;;;6.05;;
45650;SDS011;31365;48.858;8.530;2023-02-11T00:28:59;5.95;;;5.35;;
45650;SDS011;31365;48.858;8.530;2023-02-11T00:31:32;6.18;;;5.50;;
45650;SDS011;31365;48.858;8.530;2023-02-11T00:34:00;6.10;;;5.60;;
45650;SDS011;31365;48.858;8.530;2023-02-11T00:36:29;6.15;;;5.60;;
45650;SDS011;31365;48.858;8.530;2023-02-11T00:38:57;5.40;;;4.80;;
45650;SDS011;31365;48.858;8.530;2023-02-11T00:41:28;5.30;;;4.80;;
45650;SDS011;31365;48.858;8.530;2023-02-11T00:43:57;5.60;;;5.05;;
45650;SDS011;31365;48.858;8.530;2023-02-11T00:46:26;5.57;;;5.00;;
45650;SDS011;31365;48.858;8.530;2023-02-11T00:48:56;5.10;;;4.68;;
45650;SDS011;31365;48.858;8.530;2023-02-11T00:51:26;5.83;;;5.23;;
45650;SDS011;31365;48.858;8.530;2023-02-11T00:53:55;5.82;;;5.22;;
45650;SDS011;31365;48.858;8.530;2023-02-11T00:56:23;6.05;;;5.40;;
45650;SDS011;31365;48.858;8.530;2023-02-11T00:58:54;5.70;;;5.20;;
45650;SDS011;31365;48.858;8.530;2023-02-11T01:01:24;5.63;;;5.13;;
45650;SDS011;31365;48.858;8.530;2023-02-11T01:03:56;5.45;;;4.95;;
45650;SDS011;31365;48.858;8.530;2023-02-11T01:06:25;4.97;;;4.47;;
45650;SDS011;31365;48.858;8.530;2023-02-11T01:08:54;4.90;;;4.40;;
45650;SDS011;31365;48.858;8.530;2023-02-11T01:11:22;5.30;;;4.80;;
45650;SDS011;31365;48.858;8.530;2023-02-11T01:13:51;6.93;;;5.00;;
45650;SDS011;31365;48.858;8.530;2023-02-11T01:16:21;5.78;;;5.03;;
45650;SDS011;31365;48.858;8.530;2023-02-11T01:18:51;5.60;;;5.10;;
45650;SDS011;31365;48.858;8.530;2023-02-11T01:21:21;5.47;;;4.78;;
45650;SDS011;31365;48.858;8.530;2023-02-11T01:23:49;8.00;;;7.00;;
45650;SDS011;31365;48.858;8.530;2023-02-11T01:26:18;9.55;;;8.52;;
45650;SDS011;31365;48.858;8.530;2023-02-11T01:28:48;13.93;;;11.90;;
45650;SDS011;31365;48.858;8.530;2023-02-11T01:31:17;23.05;;;18.75;;
45650;SDS011;31365;48.858;8.530;2023-02-11T01:33:45;23.23;;;18.77;;
45650;SDS011;31365;48.858;8.530;2023-02-11T01:36:14;22.42;;;17.73;;
45650;SDS011;31365;48.858;8.530;2023-02-11T01:38:46;31.87;;;26.20;;
45650;SDS011;31365;48.858;8.530;2023-02-11T01:41:18;23.80;;;20.45;;
45650;SDS011;31365;48.858;8.530;2023-02-11T01:43:48;16.08;;;14.38;;
45650;SDS011;31365;48.858;8.530;2023-02-11T01:46:22;12.52;;;10.90;;
45650;SDS011;31365;48.858;8.530;2023-02-11T01:49:00;11.90;;;10.60;;
45650;SDS011;31365;48.858;8.530;2023-02-11T01:51:35;16.98;;;15.30;;
45650;SDS011;31365;48.858;8.530;2023-02-11T01:54:10;36.20;;;32.65;;
45650;SDS011;31365;48.858;8.530;2023-02-11T01:57:01;29.48;;;26.60;;
45650;SDS011;31365;48.858;8.530;2023-02-11T01:59:53;16.67;;;15.15;;
45650;SDS011;31365;48.858;8.530;2023-02-11T02:02:43;21.97;;;19.77;;
45650;SDS011;31365;48.858;8.530;2023-02-11T02:05:23;11.13;;;10.02;;
45650;SDS011;31365;48.858;8.530;2023-02-11T02:08:01;7.40;;;6.70;;
45650;SDS011;31365;48.858;8.530;2023-02-11T02:10:54;14.23;;;12.75;;
45650;SDS011;31365;48.858;8.530;2023-02-11T02:13:26;26.30;;;22.60;;
45650;SDS011;31365;48.858;8.530;2023-02-11T02:15:57;15.85;;;13.63;;
45650;SDS011;31365;48.858;8.530;2023-02-11T02:18:34;9.05;;;8.15;;
45650;SDS011;31365;48.858;8.530;2023-02-11T02:24:55;8.93;;;8.02;;
45650;SDS011;31365;48.858;8.530;2023-02-11T02:27:38;7.30;;;6.60;;
45650;SDS011;31365;48.858;8.530;2023-02-11T02:30:21;6.93;;;6.25;;
45650;SDS011;31365;48.858;8.530;2023-02-11T02:33:37;7.45;;;5.70;;
45650;SDS011;31365;48.858;8.530;2023-02-11T02:36:17;5.60;;;5.00;;
45650;SDS011;31365;48.858;8.530;2023-02-11T02:38:54;5.15;;;4.65;;
45650;SDS011;31365;48.858;8.530;2023-02-11T02:41:27;5.17;;;4.67;;
45650;SDS011;31365;48.858;8.530;2023-02-11T02:43:58;5.10;;;4.60;;
45650;SDS011;31365;48.858;8.530;2023-02-11T02:46:29;4.70;;;4.28;;
45650;SDS011;31365;48.858;8.530;2023-02-11T02:49:01;5.00;;;4.50;;
45650;SDS011;31365;48.858;8.530;2023-02-11T02:51:45;4.82;;;4.43;;
45650;SDS011;31365;48.858;8.530;2023-02-11T02:55:06;4.47;;;4.07;;
45650;SDS011;31365;48.858;8.530;2023-02-11T02:57:55;3.95;;;3.63;;
45650;SDS011;31365;48.858;8.530;2023-02-11T03:00:51;4.20;;;3.80;;
45650;SDS011;31365;48.858;8.530;2023-02-11T03:03:37;4.05;;;3.75;;
45650;SDS011;31365;48.858;8.530;2023-02-11T03:06:19;3.65;;;3.35;;
45650;SDS011;31365;48.858;8.530;2023-02-11T03:08:59;3.72;;;3.42;;
45650;SDS011;31365;48.858;8.530;2023-02-11T03:11:37;3.58;;;3.28;;
45650;SDS011;31365;48.858;8.530;2023-02-11T03:14:07;3.53;;;3.22;;
45650;SDS011;31365;48.858;8.530;2023-02-11T03:16:40;3.17;;;2.88;;
45650;SDS011;31365;48.858;8.530;2023-02-11T03:19:14;3.05;;;2.85;;
45650;SDS011;31365;48.858;8.530;2023-02-11T03:21:50;3.47;;;2.83;;
45650;SDS011;31365;48.858;8.530;2023-02-11T03:24:24;3.30;;;3.00;;
45650;SDS011;31365;48.858;8.530;2023-02-11T03:26:58;3.55;;;3.25;;
45650;SDS011;31365;48.858;8.530;2023-02-11T03:29:37;3.00;;;2.70;;
45650;SDS011;31365;48.858;8.530;2023-02-11T03:32:18;3.50;;;3.20;;
45650;SDS011;31365;48.858;8.530;2023-02-11T03:34:54;3.65;;;3.35;;
45650;SDS011;31365;48.858;8.530;2023-02-11T03:37:29;3.83;;;3.30;;
45650;SDS011;31365;48.858;8.530;2023-02-11T03:40:08;4.07;;;3.50;;
45650;SDS011;31365;48.858;8.530;2023-02-11T03:42:43;3.78;;;3.33;;
45650;SDS011;31365;48.858;8.530;2023-02-11T03:45:18;3.88;;;3.58;;
45650;SDS011;31365;48.858;8.530;2023-02-11T03:47:52;4.22;;;3.80;;
45650;SDS011;31365;48.858;8.530;2023-02-11T03:50:26;3.97;;;3.58;;
45650;SDS011;31365;48.858;8.530;2023-02-11T03:53:01;3.70;;;3.40;;
45650;SDS011;31365;48.858;8.530;2023-02-11T03:55:32;3.38;;;3.08;;
45650;SDS011;31365;48.858;8.530;2023-02-11T03:58:05;3.60;;;3.30;;
45650;SDS011;31365;48.858;8.530;2023-02-11T04:00:35;4.07;;;3.67;;
45650;SDS011;31365;48.858;8.530;2023-02-11T04:03:07;3.65;;;3.35;;
45650;SDS011;31365;48.858;8.530;2023-02-11T04:05:36;3.92;;;3.63;;
45650;SDS011;31365;48.858;8.530;2023-02-11T04:08:07;6.28;;;5.68;;
45650;SDS011;31365;48.858;8.530;2023-02-11T04:10:36;5.25;;;4.75;;
45650;SDS011;31365;48.858;8.530;2023-02-11T04:13:04;6.20;;;5.53;;
45650;SDS011;31365;48.858;8.530;2023-02-11T04:15:32;5.97;;;5.37;;
45650;SDS011;31365;48.858;8.530;2023-02-11T04:18:01;5.57;;;5.07;;
45650;SDS011;31365;48.858;8.530;2023-02-11T04:20:30;5.63;;;5.13;;
45650;SDS011;31365;48.858;8.530;2023-02-11T04:22:58;5.55;;;5.05;;
45650;SDS011;31365;48.858;8.530;2023-02-11T04:25:28;5.50;;;4.90;;
45650;SDS011;31365;48.858;8.530;2023-02-11T04:27:56;5.55;;;5.05;;
45650;SDS011;31365;48.858;8.530;2023-02-11T04:30:25;5.40;;;4.90;;
45650;SDS011;31365;48.858;8.530;2023-02-11T04:32:54;5.63;;;5.13;;
45650;SDS011;31365;48.858;8.530;2023-02-11T04:35:22;5.35;;;4.85;;
45650;SDS011;31365;48.858;8.530;2023-02-11T04:37:51;5.90;;;5.40;;
45650;SDS011;31365;48.858;8.530;2023-02-11T04:40:19;5.22;;;4.82;;
45650;SDS011;31365;48.858;8.530;2023-02-11T04:42:49;5.60;;;5.10;;
45650;SDS011;31365;48.858;8.530;2023-02-11T04:45:18;5.65;;;5.05;;
45650;SDS011;31365;48.858;8.530;2023-02-11T04:47:47;5.60;;;5.10;;
45650;SDS011;31365;48.858;8.530;2023-02-11T04:50:15;5.70;;;5.10;;
45650;SDS011;31365;48.858;8.530;2023-02-11T04:52:44;5.60;;;5.10;;
45650;SDS011;31365;48.858;8.530;2023-02-11T04:55:12;5.80;;;4.93;;
45650;SDS011;31365;48.858;8.530;2023-02-11T04:57:41;5.95;;;5.35;;
45650;SDS011;31365;48.858;8.530;2023-02-11T05:00:14;5.43;;;5.03;;
45650;SDS011;31365;48.858;8.530;2023-02-11T05:02:43;6.00;;;5.43;;
45650;SDS011;31365;48.858;8.530;2023-02-11T05:05:12;5.72;;;5.18;;
45650;SDS011;31365;48.858;8.530;2023-02-11T05:07:41;6.47;;;5.28;;
45650;SDS011;31365;48.858;8.530;2023-02-11T05:10:09;5.25;;;4.75;;
45650;SDS011;31365;48.858;8.530;2023-02-11T05:12:38;6.35;;;5.75;;
45650;SDS011;31365;48.858;8.530;2023-02-11T05:15:06;5.43;;;4.93;;
45650;SDS011;31365;48.858;8.530;2023-02-11T05:17:37;5.65;;;5.10;;
45650;SDS011;31365;48.858;8.530;2023-02-11T05:20:05;6.70;;;6.03;;
45650;SDS011;31365;48.858;8.530;2023-02-11T05:22:35;5.90;;;5.30;;
45650;SDS011;31365;48.858;8.530;2023-02-11T05:25:03;5.07;;;4.63;;
45650;SDS011;31365;48.858;8.530;2023-02-11T05:27:33;4.90;;;4.50;;
45650;SDS011;31365;48.858;8.530;2023-02-11T05:30:01;4.80;;;4.30;;
45650;SDS011;31365;48.858;8.530;2023-02-11T05:32:33;4.50;;;4.10;;
45650;SDS011;31365;48.858;8.530;2023-02-11T05:35:03;4.40;;;4.00;;
45650;SDS011;31365;48.858;8.530;2023-02-11T05:37:33;4.75;;;4.13;;
45650;SDS011;31365;48.858;8.530;2023-02-11T05:40:01;4.97;;;4.57;;
45650;SDS011;31365;48.858;8.530;2023-02-11T05:42:30;5.05;;;4.45;;
45650;SDS011;31365;48.858;8.530;2023-02-11T05:44:59;5.15;;;4.63;;
45650;SDS011;31365;48.858;8.530;2023-02-11T05:47:27;4.95;;;4.45;;
45650;SDS011;31365;48.858;8.530;2023-02-11T05:49:56;4.75;;;4.35;;
45650;SDS011;31365;48.858;8.530;2023-02-11T05:52:26;7.78;;;7.07;;
45650;SDS011;31365;48.858;8.530;2023-02-11T05:54:54;6.65;;;6.05;;
45650;SDS011;31365;48.858;8.530;2023-02-11T05:57:23;4.77;;;4.27;;
45650;SDS011;31365;48.858;8.530;2023-02-11T05:59:53;4.97;;;4.57;;
45650;SDS011;31365;48.858;8.530;2023-02-11T06:02:22;4.00;;;3.65;;
45650;SDS011;31365;48.858;8.530;2023-02-11T06:04:50;4.57;;;4.18;;
45650;SDS011;31365;48.858;8.530;2023-02-11T06:07:19;4.43;;;4.03;;
45650;SDS011;31365;48.858;8.530;2023-02-11T06:10:06;5.10;;;4.30;;
45650;SDS011;31365;48.858;8.530;2023-02-11T06:12:39;5.10;;;4.43;;
45650;SDS011;31365;48.858;8.530;2023-02-11T06:15:11;5.00;;;4.30;;
45650;SDS011;31365;48.858;8.530;2023-02-11T06:17:40;4.67;;;4.23;;
45650;SDS011;31365;48.858;8.530;2023-02-11T06:20:10;5.68;;;5.10;;
45650;SDS011;31365;48.858;8.530;2023-02-11T06:22:39;9.45;;;8.45;;
45650;SDS011;31365;48.858;8.530;2023-02-11T07:07:23;5.78;;;4.97;;
45650;SDS011;31365;48.858;8.530;2023-02-11T07:14:29;8.10;;;6.85;;
45650;SDS011;31365;48.858;8.530;2023-02-11T07:16:58;6.35;;;5.38;;
45650;SDS011;31365;48.858;8.530;2023-02-11T07:19:26;7.55;;;6.18;;
45650;SDS011;31365;48.858;8.530;2023-02-11T07:21:55;8.25;;;7.45;;
45650;SDS011;31365;48.858;8.530;2023-02-11T07:24:25;5.53;;;4.93;;
45650;SDS011;31365;48.858;8.530;2023-02-11T07:26:53;5.15;;;4.75;;
45650;SDS011;31365;48.858;8.530;2023-02-11T07:29:22;5.85;;;4.80;;
45650;SDS011;31365;48.858;8.530;2023-02-11T07:31:51;4.85;;;4.10;;
45650;SDS011;31365;48.858;8.530;2023-02-11T07:34:19;4.72;;;4.30;;
45650;SDS011;31365;48.858;8.530;2023-02-11T07:36:47;5.72;;;4.75;;
45650;SDS011;31365;48.858;8.530;2023-02-11T07:39:16;5.45;;;4.70;;
45650;SDS011;31365;48.858;8.530;2023-02-11T07:41:46;6.60;;;5.80;;
45650;SDS011;31365;48.858;8.530;2023-02-11T07:44:15;10.03;;;7.93;;
45650;SDS011;31365;48.858;8.530;2023-02-11T07:46:44;11.10;;;8.10;;
45650;SDS011;31365;48.858;8.530;2023-02-11T07:49:15;7.70;;;5.00;;
45650;SDS011;31365;48.858;8.530;2023-02-11T07:51:44;7.47;;;4.85;;
45650;SDS011;31365;48.858;8.530;2023-02-11T07:54:14;7.00;;;6.40;;
45650;SDS011;31365;48.858;8.530;2023-02-11T07:56:42;12.20;;;8.63;;
45650;SDS011;31365;48.858;8.530;2023-02-11T07:59:12;13.30;;;12.00;;
45650;SDS011;31365;48.858;8.530;2023-02-11T08:01:40;7.30;;;6.50;;
45650;SDS011;31365;48.858;8.530;2023-02-11T08:04:09;7.00;;;4.50;;
45650;SDS011;31365;48.858;8.530;2023-02-11T08:06:39;4.15;;;3.30;;
45650;SDS011;31365;48.858;8.530;2023-02-11T08:09:10;3.80;;;3.00;;
45650;SDS011;31365;48.858;8.530;2023-02-11T08:11:43;3.22;;;2.95;;
45650;SDS011;31365;48.858;8.530;2023-02-11T08:14:13;4.03;;;2.77;;
45650;SDS011;31365;48.858;8.530;2023-02-11T08:16:42;3.95;;;2.85;;
45650;SDS011;31365;48.858;8.530;2023-02-11T08:19:11;3.17;;;2.87;;
45650;SDS011;31365;48.858;8.530;2023-02-11T08:21:42;4.70;;;3.33;;
45650;SDS011;31365;48.858;8.530;2023-02-11T08:24:11;5.87;;;3.20;;
45650;SDS011;31365;48.858;8.530;2023-02-11T08:26:40;3.40;;;3.10;;
45650;SDS011;31365;48.858;8.530;2023-02-11T08:29:10;4.20;;;2.80;;
45650;SDS011;31365;48.858;8.530;2023-02-11T08:31:42;4.00;;;2.60;;
45650;SDS011;31365;48.858;8.530;2023-02-11T08:34:13;3.70;;;3.00;;
45650;SDS011;31365;48.858;8.530;2023-02-11T08:36:45;3.67;;;3.35;;
45650;SDS011;31365;48.858;8.530;2023-02-11T08:39:15;5.38;;;3.28;;
45650;SDS011;31365;48.858;8.530;2023-02-11T08:41:46;3.00;;;2.33;;
45650;SDS011;31365;48.858;8.530;2023-02-11T08:44:18;2.92;;;2.20;;
45650;SDS011;31365;48.858;8.530;2023-02-11T08:46:48;3.95;;;3.30;;
45650;SDS011;31365;48.858;8.530;2023-02-11T08:49:18;3.67;;;3.33;;
45650;SDS011;31365;48.858;8.530;2023-02-11T08:51:47;8.68;;;7.78;;
45650;SDS011;31365;48.858;8.530;2023-02-11T08:54:19;5.75;;;4.97;;
45650;SDS011;31365;48.858;8.530;2023-02-11T08:56:49;3.47;;;3.17;;
45650;SDS011;31365;48.858;8.530;2023-02-11T08:59:19;7.75;;;6.40;;
45650;SDS011;31365;48.858;8.530;2023-02-11T09:01:47;9.63;;;8.50;;
45650;SDS011;31365;48.858;8.530;2023-02-11T09:04:16;9.52;;;8.48;;
45650;SDS011;31365;48.858;8.530;2023-02-11T09:06:45;9.70;;;8.55;;
45650;SDS011;31365;48.858;8.530;2023-02-11T09:09:13;12.23;;;10.35;;
45650;SDS011;31365;48.858;8.530;2023-02-11T09:11:43;13.32;;;11.70;;
45650;SDS011;31365;48.858;8.530;2023-02-11T09:14:16;7.28;;;6.57;;
45650;SDS011;31365;48.858;8.530;2023-02-11T09:16:49;11.07;;;10.07;;
45650;SDS011;31365;48.858;8.530;2023-02-11T09:19:19;5.05;;;4.45;;
45650;SDS011;31365;48.858;8.530;2023-02-11T09:21:48;6.32;;;5.72;;
45650;SDS011;31365;48.858;8.530;2023-02-11T09:24:16;6.70;;;6.00;;
45650;SDS011;31365;48.858;8.530;2023-02-11T09:26:45;7.50;;;5.73;;
45650;SDS011;31365;48.858;8.530;2023-02-11T09:29:13;5.10;;;4.47;;
45650;SDS011;31365;48.858;8.530;2023-02-11T09:31:42;5.97;;;4.85;;
45650;SDS011;31365;48.858;8.530;2023-02-11T09:34:11;7.07;;;5.28;;
45650;SDS011;31365;48.858;8.530;2023-02-11T09:36:40;9.88;;;8.35;;
45650;SDS011;31365;48.858;8.530;2023-02-11T09:39:10;15.52;;;10.48;;
45650;SDS011;31365;48.858;8.530;2023-02-11T09:41:43;7.45;;;6.47;;
45650;SDS011;31365;48.858;8.530;2023-02-11T09:44:56;5.93;;;4.95;;
45650;SDS011;31365;48.858;8.530;2023-02-11T09:47:29;5.90;;;4.82;;
45650;SDS011;31365;48.858;8.530;2023-02-11T09:50:01;6.95;;;5.50;;
45650;SDS011;31365;48.858;8.530;2023-02-11T09:52:39;6.63;;;5.60;;
45650;SDS011;31365;48.858;8.530;2023-02-11T09:55:17;6.30;;;5.60;;
45650;SDS011;31365;48.858;8.530;2023-02-11T09:57:49;6.10;;;5.50;;
45650;SDS011;31365;48.858;8.530;2023-02-11T10:00:19;5.93;;;4.80;;
45650;SDS011;31365;48.858;8.530;2023-02-11T10:02:57;6.20;;;5.40;;
45650;SDS011;31365;48.858;8.530;2023-02-11T10:06:08;10.95;;;6.40;;
45650;SDS011;31365;48.858;8.530;2023-02-11T10:08:52;6.80;;;5.82;;
45650;SDS011;31365;48.858;8.530;2023-02-11T10:11:35;7.75;;;7.05;;
45650;SDS011;31365;48.858;8.530;2023-02-11T10:14:20;8.45;;;7.20;;
45650;SDS011;31365;48.858;8.530;2023-02-11T10:17:14;8.18;;;7.38;;
45650;SDS011;31365;48.858;8.530;2023-02-11T10:19:59;7.80;;;7.10;;
45650;SDS011;31365;48.858;8.530;2023-02-11T10:22:45;7.90;;;7.10;;
45650;SDS011;31365;48.858;8.530;2023-02-11T10:25:20;7.47;;;6.70;;
45650;SDS011;31365;48.858;8.530;2023-02-11T10:27:53;8.35;;;7.10;;
45650;SDS011;31365;48.858;8.530;2023-02-11T10:30:27;9.43;;;6.80;;
45650;SDS011;31365;48.858;8.530;2023-02-11T10:33:03;8.27;;;7.47;;
45650;SDS011;31365;48.858;8.530;2023-02-11T10:35:45;8.95;;;7.28;;
45650;SDS011;31365;48.858;8.530;2023-02-11T10:38:13;7.93;;;7.13;;
45650;SDS011;31365;48.858;8.530;2023-02-11T10:40:41;8.10;;;7.20;;
45650;SDS011;31365;48.858;8.530;2023-02-11T10:43:10;8.07;;;7.30;;
45650;SDS011;31365;48.858;8.530;2023-02-11T10:45:43;8.25;;;7.35;;
45650;SDS011;31365;48.858;8.530;2023-02-11T10:51:15;8.55;;;7.38;;
45650;SDS011;31365;48.858;8.530;2023-02-11T10:53:48;9.23;;;8.10;;
45650;SDS011;31365;48.858;8.530;2023-02-11T10:56:40;8.82;;;7.97;;
45650;SDS011;31365;48.858;8.530;2023-02-11T10:59:14;8.57;;;7.47;;
45650;SDS011;31365;48.858;8.530;2023-02-11T11:01:51;7.82;;;7.13;;
45650;SDS011;31365;48.858;8.530;2023-02-11T11:04:34;8.80;;;7.90;;
45650;SDS011;31365;48.858;8.530;2023-02-11T11:07:18;11.02;;;9.30;;
45650;SDS011;31365;48.858;8.530;2023-02-11T11:09:50;9.63;;;8.73;;
45650;SDS011;31365;48.858;8.530;2023-02-11T11:12:25;9.98;;;8.98;;
45650;SDS011;31365;48.858;8.530;2023-02-11T11:14:59;9.95;;;8.95;;
45650;SDS011;31365;48.858;8.530;2023-02-11T11:17:39;10.13;;;9.13;;
45650;SDS011;31365;48.858;8.530;2023-02-11T11:20:18;10.40;;;9.40;;
45650;SDS011;31365;48.858;8.530;2023-02-11T11:23:08;11.02;;;8.90;;
45650;SDS011;31365;48.858;8.530;2023-02-11T11:25:44;9.63;;;8.20;;
45650;SDS011;31365;48.858;8.530;2023-02-11T11:28:28;10.00;;;7.45;;
45650;SDS011;31365;48.858;8.530;2023-02-11T11:31:04;9.20;;;8.30;;
45650;SDS011;31365;48.858;8.530;2023-02-11T11:33:41;9.70;;;8.32;;
45650;SDS011;31365;48.858;8.530;2023-02-11T11:36:11;9.77;;;8.70;;
45650;SDS011;31365;48.858;8.530;2023-02-11T11:38:49;8.95;;;8.15;;
45650;SDS011;31365;48.858;8.530;2023-02-11T11:41:24;9.23;;;8.32;;
45650;SDS011;31365;48.858;8.530;2023-02-11T11:43:57;9.77;;;8.43;;
45650;SDS011;31365;48.858;8.530;2023-02-11T11:46:30;10.10;;;8.90;;
45650;SDS011;31365;48.858;8.530;2023-02-11T11:49:08;10.43;;;9.43;;
45650;SDS011;31365;48.858;8.530;2023-02-11T11:51:50;10.70;;;9.60;;
45650;SDS011;31365;48.858;8.530;2023-02-11T11:54:33;10.15;;;9.07;;
45650;SDS011;31365;48.858;8.530;2023-02-11T11:57:04;10.13;;;9.13;;
45650;SDS011;31365;48.858;8.530;2023-02-11T11:59:43;12.43;;;10.25;;
45650;SDS011;31365;48.858;8.530;2023-02-11T12:02:18;12.20;;;10.90;;
45650;SDS011;31365;48.858;8.530;2023-02-11T12:05:12;11.05;;;9.85;;
45650;SDS011;31365;48.858;8.530;2023-02-11T12:07:55;12.63;;;10.45;;
45650;SDS011;31365;48.858;8.530;2023-02-11T12:10:43;11.70;;;10.50;;
45650;SDS011;31365;48.858;8.530;2023-02-11T12:13:32;12.50;;;10.05;;
45650;SDS011;31365;48.858;8.530;2023-02-11T12:16:28;11.10;;;10.00;;
45650;SDS011;31365;48.858;8.530;2023-02-11T12:22:29;11.70;;;10.50;;
45650;SDS011;31365;48.858;8.530;2023-02-11T12:25:21;12.85;;;11.55;;
45650;SDS011;31365;48.858;8.530;2023-02-11T12:28:09;11.77;;;10.50;;
45650;SDS011;31365;48.858;8.530;2023-02-11T12:31:00;13.15;;;11.85;;
45650;SDS011;31365;48.858;8.530;2023-02-11T12:33:59;13.03;;;11.83;;
45650;SDS011;31365;48.858;8.530;2023-02-11T12:36:54;12.73;;;11.52;;
45650;SDS011;31365;48.858;8.530;2023-02-11T12:39:38;13.40;;;12.20;;
45650;SDS011;31365;48.858;8.530;2023-02-11T12:42:16;13.70;;;12.40;;
45650;SDS011;31365;48.858;8.530;2023-02-11T12:48:47;12.10;;;10.90;;
45650;SDS011;31365;48.858;8.530;2023-02-11T12:54:57;13.25;;;11.95;;
45650;SDS011;31365;48.858;8.530;2023-02-11T12:57:33;12.95;;;11.70;;
45650;SDS011;31365;48.858;8.530;2023-02-11T13:00:07;13.10;;;11.70;;
45650;SDS011;31365;48.858;8.530;2023-02-11T13:02:48;13.23;;;12.00;;
45650;SDS011;31365;48.858;8.530;2023-02-11T13:05:27;11.80;;;10.70;;
45650;SDS011;31365;48.858;8.530;2023-02-11T13:08:03;11.98;;;10.77;;
45650;SDS011;31365;48.858;8.530;2023-02-11T13:10:40;11.50;;;10.50;;
45650;SDS011;31365;48.858;8.530;2023-02-11T13:13:16;11.80;;;10.70;;
45650;SDS011;31365;48.858;8.530;2023-02-11T13:15:50;12.55;;;11.45;;
45650;SDS011;31365;48.858;8.530;2023-02-11T13:18:35;12.15;;;10.95;;
45650;SDS011;31365;48.858;8.530;2023-02-11T13:21:24;12.07;;;10.98;;
45650;SDS011;31365;48.858;8.530;2023-02-11T13:24:11;12.20;;;11.02;;
45650;SDS011;31365;48.858;8.530;2023-02-11T13:26:55;12.40;;;11.20;;
45650;SDS011;31365;48.858;8.530;2023-02-11T13:29:37;12.30;;;11.20;;
45650;SDS011;31365;48.858;8.530;2023-02-11T13:35:34;11.48;;;10.48;;
45650;SDS011;31365;48.858;8.530;2023-02-11T13:38:05;12.40;;;11.30;;
45650;SDS011;31365;48.858;8.530;2023-02-11T13:40:58;11.90;;;10.80;;
45650;SDS011;31365;48.858;8.530;2023-02-11T13:43:31;12.23;;;11.13;;
45650;SDS011;31365;48.858;8.530;2023-02-11T13:46:03;12.70;;;11.50;;
45650;SDS011;31365;48.858;8.530;2023-02-11T13:48:35;11.93;;;10.82;;
45650;SDS011;31365;48.858;8.530;2023-02-11T13:51:13;11.60;;;10.50;;
45650;SDS011;31365;48.858;8.530;2023-02-11T13:53:45;11.77;;;10.68;;
45650;SDS011;31365;48.858;8.530;2023-02-11T13:56:27;11.05;;;10.05;;
45650;SDS011;31365;48.858;8.530;2023-02-11T13:58:59;11.15;;;10.15;;
45650;SDS011;31365;48.858;8.530;2023-02-11T14:01:38;13.27;;;12.07;;
45650;SDS011;31365;48.858;8.530;2023-02-11T14:04:19;10.57;;;9.57;;
45650;SDS011;31365;48.858;8.530;2023-02-11T14:07:23;12.20;;;11.10;;
45650;SDS011;31365;48.858;8.530;2023-02-11T14:13:21;11.02;;;10.02;;
45650;SDS011;31365;48.858;8.530;2023-02-11T14:16:02;13.20;;;11.90;;
45650;SDS011;31365;48.858;8.530;2023-02-11T14:21:31;10.80;;;9.87;;
45650;SDS011;31365;48.858;8.530;2023-02-11T14:27:30;10.63;;;9.73;;
45650;SDS011;31365;48.858;8.530;2023-02-11T14:30:20;10.33;;;9.53;;
45650;SDS011;31365;48.858;8.530;2023-02-11T14:33:16;11.33;;;10.23;;
45650;SDS011;31365;48.858;8.530;2023-02-11T14:39:37;15.20;;;13.32;;
45650;SDS011;31365;48.858;8.530;2023-02-11T14:42:19;11.60;;;10.60;;
45650;SDS011;31365;48.858;8.530;2023-02-11T14:44:52;17.05;;;15.35;;
45650;SDS011;31365;48.858;8.530;2023-02-11T14:47:31;12.37;;;11.07;;
45650;SDS011;31365;48.858;8.530;2023-02-11T14:50:13;10.27;;;9.38;;
45650;SDS011;31365;48.858;8.530;2023-02-11T14:52:45;10.85;;;9.85;;
45650;SDS011;31365;48.858;8.530;2023-02-11T14:55:20;10.77;;;9.82;;
45650;SDS011;31365;48.858;8.530;2023-02-11T14:58:07;9.88;;;8.98;;
45650;SDS011;31365;48.858;8.530;2023-02-11T15:00:49;10.35;;;9.40;;
45650;SDS011;31365;48.858;8.530;2023-02-11T15:03:25;10.70;;;9.80;;
45650;SDS011;31365;48.858;8.530;2023-02-11T15:06:01;11.82;;;10.70;;
45650;SDS011;31365;48.858;8.530;2023-02-11T15:08:34;12.35;;;9.77;;
45650;SDS011;31365;48.858;8.530;2023-02-11T15:11:09;11.68;;;10.52;;
45650;SDS011;31365;48.858;8.530;2023-02-11T15:13:43;11.20;;;10.13;;
45650;SDS011;31365;48.858;8.530;2023-02-11T15:16:16;11.65;;;10.55;;
45650;SDS011;31365;48.858;8.530;2023-02-11T15:18:49;11.73;;;10.52;;
45650;SDS011;31365;48.858;8.530;2023-02-11T15:21:22;21.90;;;18.93;;
45650;SDS011;31365;48.858;8.530;2023-02-11T15:23:58;13.20;;;11.85;;
45650;SDS011;31365;48.858;8.530;2023-02-11T15:26:31;33.22;;;27.98;;
45650;SDS011;31365;48.858;8.530;2023-02-11T15:29:01;21.98;;;19.63;;
45650;SDS011;31365;48.858;8.530;2023-02-11T15:31:30;17.35;;;15.75;;
45650;SDS011;31365;48.858;8.530;2023-02-11T15:34:05;14.77;;;13.23;;
45650;SDS011;31365;48.858;8.530;2023-02-11T15:36:35;13.73;;;12.43;;
45650;SDS011;31365;48.858;8.530;2023-02-11T15:39:14;13.48;;;12.18;;
45650;SDS011;31365;48.858;8.530;2023-02-11T15:41:45;14.05;;;12.68;;
45650;SDS011;31365;48.858;8.530;2023-02-11T15:44:28;13.57;;;12.38;;
45650;SDS011;31365;48.858;8.530;2023-02-11T15:47:01;14.70;;;12.88;;
45650;SDS011;31365;48.858;8.530;2023-02-11T15:49:36;14.23;;;12.82;;
45650;SDS011;31365;48.858;8.530;2023-02-11T15:52:10;13.32;;;12.02;;
45650;SDS011;31365;48.858;8.530;2023-02-11T15:54:48;12.75;;;11.63;;
45650;SDS011;31365;48.858;8.530;2023-02-11T15:57:18;12.88;;;11.65;;
45650;SDS011;31365;48.858;8.530;2023-02-11T15:59:50;12.65;;;11.55;;
45650;SDS011;31365;48.858;8.530;2023-02-11T16:02:23;12.30;;;11.20;;
45650;SDS011;31365;48.858;8.530;2023-02-11T16:04:59;11.65;;;10.73;;
45650;SDS011;31365;48.858;8.530;2023-02-11T16:07:38;12.32;;;11.13;;
45650;SDS011;31365;48.858;8.530;2023-02-11T16:10:17;13.95;;;12.70;;
45650;SDS011;31365;48.858;8.530;2023-02-11T16:12:53;16.85;;;15.25;;
45650;SDS011;31365;48.858;8.530;2023-02-11T16:15:40;22.40;;;20.20;;
45650;SDS011;31365;48.858;8.530;2023-02-11T16:18:14;19.10;;;13.80;;
45650;SDS011;31365;48.858;8.530;2023-02-11T16:21:05;15.45;;;14.00;;
45650;SDS011;31365;48.858;8.530;2023-02-11T16:23:41;19.65;;;17.55;;
45650;SDS011;31365;48.858;8.530;2023-02-11T16:26:22;13.77;;;12.47;;
45650;SDS011;31365;48.858;8.530;2023-02-11T16:29:03;14.02;;;12.63;;
45650;SDS011;31365;48.858;8.530;2023-02-11T16:31:38;16.67;;;15.07;;
45650;SDS011;31365;48.858;8.530;2023-02-11T16:34:12;16.90;;;15.20;;
45650;SDS011;31365;48.858;8.530;2023-02-11T16:36:43;21.02;;;18.92;;
45650;SDS011;31365;48.858;8.530;2023-02-11T16:39:12;17.75;;;16.15;;
45650;SDS011;31365;48.858;8.530;2023-02-11T16:41:42;19.52;;;17.73;;
45650;SDS011;31365;48.858;8.530;2023-02-11T16:44:10;17.83;;;16.02;;